Atkins, Virginia
Current Conditions -  °F | °C
As of 2:55 PM on Wednesday 28 Jan 2015 (Local Time) from KMKJ Reporting Station
Clear Clear  
Wind Chill: 29°   Ceiling: Unl
Heat Index: 37°   Visibility: 10mi
Dew Point: 18°   Wind: 10mph
Humidity: 46%   Direction: 250°WSW
Pressure: 30.2"   Gusts: NA
Location:  36.87°N, 81.4°W
Report Text: KMKJ 281955Z AUTO 25009KT 10SM CLR 03/M08 A3020 RMK AO2 T00261080
Loading
Personal Weather Stations






























Interactive Weather Map New forecast layout! Learn more

10-Day Weather Forecast

Advertisements
Track Severe Weather on mobile